Latest Weather Observations for Oenpelli Airport

IDD60801

Issued at 2:31 pm CST Wednesday 29 July 2015 (issued every 30 minutes, with the page automatically refreshed every 10 minutes)

About weather observations | Map of weather stations | Latest weather observations for NT | Other Formats
Station Details ID: 014310 Name: OENPELLI AIRPORT Lat: -12.33 Lon: 133.01 Height: 7.5 m
Data from the previous 72 hours. | See also: Recent months for locations in Northern Territory
Date/Time
CST
Temp
°C
App
Temp
°C
Dew
Point
Rel
Hum
%
Delta-T
°C
Wind Press
QNH
hPa
Press
MSL
hPa
Rain
since 9 am
mm
Dir
 
Spd
km/h
Gust
km/h
Spd
kts
Gust
kts
29/02:30pm 32.6 - - - - ESE 20 30 11 16 1013.9 1013.8 0.0
29/02:00pm 32.5 - - - - ESE 17 26 9 14 1014.3 1014.2 0.0
29/01:30pm 32.6 - - - - ESE 20 32 11 17 1014.9 1014.8 0.0
29/01:00pm 32.1 - - - - E 24 35 13 19 1015.4 1015.3 0.0
29/12:30pm 31.4 - - - - ESE 20 39 11 21 1015.9 1015.8 0.0
29/12:00pm 30.7 - - - - ESE 19 30 10 16 1016.6 1016.5 0.0
29/11:30am 30.5 - - - - ESE 20 33 11 18 1017.1 1017.0 0.0
29/11:00am 29.5 - - - - ESE 22 37 12 20 1017.4 1017.3 0.0
29/10:30am 28.7 - - - - ESE 22 35 12 19 1017.7 1017.6 0.0
29/10:00am 28.6 - - - - ESE 22 35 12 19 1017.8 1017.7 0.0
29/09:30am 27.6 - - - - ESE 19 30 10 16 1018.0 1017.9 0.0
29/09:00am 27.0 - - - - ESE 17 24 9 13 1017.9 1017.8 0.0
29/08:30am 26.2 - - - - ESE 13 20 7 11 1017.6 1017.5 0.0
29/08:00am 25.3 - - - - ESE 9 15 5 8 1017.4 1017.3 0.0
29/07:30am 24.4 - - - - ESE 11 17 6 9 1017.1 1017.0 0.0
29/07:00am 23.9 - - - - ESE 13 20 7 11 1016.7 1016.6 0.0
29/06:30am 23.6 - - - - ESE 7 13 4 7 1016.4 1016.3 0.0
29/06:00am 23.4 - - - - E 9 13 5 7 1016.2 1016.1 0.0
29/05:30am 22.8 - - - - ENE 7 13 4 7 1016.1 1016.0 0.0
29/05:00am 22.5 - - - - ESE 7 15 4 8 1016.1 1016.0 0.0
29/04:30am 21.7 - - - - SE 6 9 3 5 1016.2 1016.1 0.0
29/04:00am 22.3 - - - - E 7 13 4 7 1016.4 1016.3 0.0
29/03:30am 22.3 - - - - E 6 13 3 7 1016.8 1016.7 0.0
29/03:00am 23.2 - - - - ESE 11 17 6 9 1016.9 1016.8 0.0
29/02:30am 22.9 - - - - E 6 13 3 7 1016.9 1016.8 0.0
29/02:00am 24.0 - - - - ESE 9 19 5 10 1016.9 1016.8 0.0
29/01:30am 24.0 - - - - E 9 11 5 6 1017.0 1016.9 0.0
29/01:00am 25.2 - - - - ESE 9 22 5 12 1017.0 1016.9 0.0
29/12:30am 25.6 - - - - SE 9 17 5 9 1017.0 1016.9 0.0
29/12:00am 25.8 - - - - SE 9 13 5 7 1017.0 1016.9 0.0
 
Date/Time
CST
Temp
°C
App
Temp
°C
Dew
Point
Rel
Hum
%
Delta-T
°C
Wind Press
QNH
hPa
Press
MSL
hPa
Rain
since 9 am
mm
Dir
 
Spd
km/h
Gust
km/h
Spd
kts
Gust
kts
28/11:30pm 26.2 - - - - SE 9 15 5 8 1017.0 1016.9 0.0
28/11:00pm 26.8 - - - - SE 9 17 5 9 1017.2 1017.1 0.0
28/10:30pm 26.9 - - - - ESE 9 15 5 8 1017.4 1017.3 0.0
28/10:00pm 27.1 - - - - SE 9 13 5 7 1017.4 1017.3 0.0
28/09:30pm 27.3 - - - - SE 7 11 4 6 1017.3 1017.2 0.0
28/09:00pm 27.8 - - - - ESE 11 15 6 8 1017.2 1017.1 0.0
28/08:30pm 27.6 - - - - ESE 7 11 4 6 1016.9 1016.8 0.0
28/08:00pm 27.9 - - - - SE 6 11 3 6 1016.5 1016.4 0.0
28/07:30pm 28.3 - - - - ESE 7 11 4 6 1016.0 1015.9 0.0
28/07:00pm 28.9 - - - - ESE 9 15 5 8 1015.6 1015.5 0.0
28/06:30pm 29.8 - - - - ESE 13 19 7 10 1015.3 1015.2 0.0
28/06:00pm 30.7 - - - - E 15 24 8 13 1015.1 1015.0 0.0
28/05:30pm 31.3 - - - - SE 13 24 7 13 1014.7 1014.6 0.0
28/05:00pm 32.1 - - - - ESE 19 33 10 18 1014.6 1014.5 0.0
28/04:30pm 32.1 - - - - E 22 30 12 16 1014.4 1014.3 0.0
28/04:00pm 32.5 - - - - E 20 30 11 16 1014.4 1014.3 0.0
28/03:30pm 32.9 - - - - E 19 28 10 15 1014.5 1014.4 0.0
28/03:00pm 32.9 - - - - ESE 19 28 10 15 1014.7 1014.6 0.0
28/02:30pm 32.3 - - - - SE 17 32 9 17 1014.9 1014.8 0.0
28/02:00pm 32.3 - - - - SE 15 33 8 18 1015.2 1015.1 0.0
28/01:30pm 31.6 - - - - E 17 24 9 13 1015.6 1015.5 0.0
28/01:00pm 31.8 - - - - ESE 24 35 13 19 1016.1 1016.0 0.0
28/12:30pm 31.3 - - - - ESE 19 32 10 17 1016.6 1016.5 0.0
28/12:00pm 30.3 - - - - E 22 32 12 17 1017.0 1016.9 0.0
28/11:30am 29.4 - - - - ESE 19 30 10 16 1017.4 1017.3 0.0
28/11:00am 28.7 - - - - SE 20 32 11 17 1017.6 1017.5 0.0
28/10:30am 28.5 - - - - ESE 22 35 12 19 1018.0 1017.9 0.0
28/10:00am 27.6 - - - - ESE 24 37 13 20 1018.2 1018.1 0.0
28/09:30am 26.4 - - - - ESE 26 41 14 22 1018.3 1018.2 0.0
28/09:00am 26.0 - - - - ESE 20 32 11 17 1018.4 1018.3 0.0
28/08:30am 25.3 - - - - ESE 17 32 9 17 1018.2 1018.1 0.0
28/08:00am 24.7 - - - - ESE 15 26 8 14 1018.0 1017.9 0.0
28/07:30am 23.8 - - - - ESE 13 22 7 12 1017.7 1017.6 0.0
28/07:00am 23.5 - - - - SE 11 19 6 10 1017.5 1017.4 0.0
28/06:30am 22.8 - - - - SE 4 9 2 5 1017.2 1017.1 0.0
28/06:00am 22.4 - - - - SE 4 6 2 3 1017.0 1016.9 0.0
28/05:30am 23.5 - - - - ESE 9 17 5 9 1016.9 1016.8 0.0
28/05:00am 24.1 - - - - ESE 11 20 6 11 1016.8 1016.7 0.0
28/04:30am 24.4 - - - - SE 9 15 5 8 1016.7 1016.6 0.0
28/04:00am 24.6 - - - - ESE 17 26 9 14 1016.6 1016.5 0.0
28/03:30am 24.6 - - - - ESE 9 15 5 8 1016.7 1016.6 0.0
28/03:00am 24.9 - - - - SE 9 17 5 9 1016.8 1016.7 0.0
28/02:30am 25.2 - - - - SE 11 17 6 9 1016.8 1016.7 0.0
28/02:00am 25.2 - - - - SE 9 15 5 8 1016.9 1016.8 0.0
28/01:30am 25.7 - - - - ESE 11 17 6 9 1017.0 1016.9 0.0
28/01:00am 26.2 - - - - SE 13 22 7 12 1016.9 1016.8 0.0
28/12:30am 26.4 - - - - SE 9 17 5 9 1016.8 1016.7 0.0
28/12:00am 26.6 - - - - SE 7 11 4 6 1016.8 1016.7 0.0
 
Date/Time
CST
Temp
°C
App
Temp
°C
Dew
Point
Rel
Hum
%
Delta-T
°C
Wind Press
QNH
hPa
Press
MSL
hPa
Rain
since 9 am
mm
Dir
 
Spd
km/h
Gust
km/h
Spd
kts
Gust
kts
27/11:30pm 27.1 - - - - SE 7 13 4 7 1016.8 1016.7 0.0
27/11:00pm 27.7 - - - - SE 7 11 4 6 1016.6 1016.5 0.0
27/10:30pm 28.3 - - - - ESE 11 22 6 12 1016.6 1016.5 0.0
27/10:00pm 29.2 - - - - ESE 17 28 9 15 1016.5 1016.4 0.0
27/09:30pm 29.1 - - - - SE 11 19 6 10 1016.4 1016.3 0.0
27/09:00pm 29.6 - - - - ESE 11 20 6 11 1016.2 1016.1 0.0
27/08:30pm 29.9 - - - - ESE 13 20 7 11 1016.0 1015.9 0.0
27/08:00pm 30.4 - - - - ESE 13 20 7 11 1015.5 1015.4 0.0
27/07:30pm 30.0 - - - - ESE 11 15 6 8 1015.2 1015.1 0.0
27/07:00pm 30.4 - - - - ESE 11 17 6 9 1014.9 1014.8 0.0
27/06:30pm 30.8 - - - - ESE 13 19 7 10 1014.5 1014.4 0.0
27/06:00pm 31.7 - - - - ESE 15 24 8 13 1014.3 1014.2 0.0
27/05:30pm 32.1 - - - - ESE 19 32 10 17 1014.1 1014.0 0.0
27/05:00pm 32.7 - - - - E 20 33 11 18 1013.9 1013.8 0.0
27/04:30pm 32.8 - - - - ESE 15 24 8 13 1013.8 1013.7 0.0
27/04:00pm 33.3 - - - - ESE 20 30 11 16 1013.8 1013.7 0.0
27/03:30pm 32.6 - - - - ESE 22 35 12 19 1013.8 1013.7 0.0
27/03:00pm 34.2 - - - - ESE 19 32 10 17 1013.8 1013.7 0.0
27/02:30pm 32.7 - - - - ESE 20 30 11 16 1014.0 1013.9 0.0
27/02:00pm 33.0 - - - - E 26 35 14 19 1014.4 1014.3 0.0
27/01:30pm 34.0 - - - - E 22 39 12 21 1015.0 1014.9 0.0
27/01:00pm 33.1 - - - - E 26 37 14 20 1015.5 1015.4 0.0
27/12:30pm 33.1 - - - - E 28 37 15 20 1016.0 1015.9 0.0
27/12:00pm 32.4 - - - - ENE 32 43 17 23 1016.4 1016.3 0.0
27/11:30am 32.3 - - - - E 26 37 14 20 1016.9 1016.8 0.0
27/11:00am 32.0 - - - - E 22 32 12 17 1017.3 1017.2 0.0
27/10:30am 31.0 - - - - E 22 32 12 17 1017.9 1017.8 0.0
27/10:00am 30.4 - - - - ENE 15 28 8 15 1018.2 1018.1 0.0
27/09:30am 28.7 - - - - NE 11 17 6 9 1018.5 1018.4 0.0
27/09:00am 26.6 - - - - W 6 9 3 5 1018.6 1018.5 0.0
27/08:30am 25.1 - - - - CALM 0 0 0 0 1018.4 1018.3 0.0
27/08:00am 23.2 - - - - CALM 0 0 0 0 1018.1 1018.0 0.0
27/07:30am 21.3 - - - - CALM 0 0 0 0 1017.6 1017.5 0.0
27/07:00am 21.3 - - - - CALM 0 0 0 0 1017.2 1017.1 0.0
27/06:30am 21.3 - - - - CALM 0 0 0 0 1016.9 1016.8 0.0
27/06:00am 22.4 - - - - WSW 6 6 3 3 1016.6 1016.5 0.0
27/05:30am 22.6 - - - - WSW 7 11 4 6 1016.3 1016.2 0.0
27/05:00am 22.6 - - - - SW 6 11 3 6 1016.1 1016.0 0.0
27/04:30am 22.3 - - - - SSW 7 11 4 6 1016.1 1016.0 0.0
27/04:00am 21.6 - - - - SW 4 6 2 3 1016.1 1016.0 0.0
27/03:30am 22.2 - - - - CALM 0 4 0 2 1016.0 1015.9 0.0
27/03:00am 22.5 - - - - CALM 0 0 0 0 1016.0 1015.9 0.0
27/02:30am 23.2 - - - - CALM 0 0 0 0 1016.2 1016.1 0.0
27/02:00am 22.8 - - - - CALM 0 0 0 0 1016.4 1016.3 0.0
27/01:30am 22.8 - - - - CALM 0 0 0 0 1016.6 1016.5 0.0
27/01:00am 23.8 - - - - CALM 0 4 0 2 1017.0 1016.9 0.0
27/12:30am 25.0 - - - - NNE 6 7 3 4 1017.1 1017.0 0.0
27/12:00am 25.3 - - - - NE 7 7 4 4 1017.2 1017.1 0.0
 
Date/Time
CST
Temp
°C
App
Temp
°C
Dew
Point
Rel
Hum
%
Delta-T
°C
Wind Press
QNH
hPa
Press
MSL
hPa
Rain
since 9 am
mm
Dir
 
Spd
km/h
Gust
km/h
Spd
kts
Gust
kts
26/11:30pm 25.9 - - - - NE 7 9 4 5 1017.3 1017.2 0.0
26/11:00pm 25.9 - - - - NE 6 9 3 5 1017.3 1017.2 0.0
26/10:30pm 26.4 - - - - NE 9 13 5 7 1017.3 1017.2 0.0
26/10:00pm 26.9 - - - - NE 9 13 5 7 1017.3 1017.2 0.0
26/09:30pm 27.2 - - - - NNE 6 7 3 4 1017.2 1017.1 0.0
26/09:00pm 27.1 - - - - NNE 4 9 2 5 1016.8 1016.7 0.0
26/08:30pm 27.5 - - - - NNE 9 13 5 7 1016.5 1016.4 0.0
26/08:00pm 28.1 - - - - NE 6 9 3 5 1016.2 1016.1 0.0
26/07:30pm 28.1 - - - - NE 7 13 4 7 1015.7 1015.6 0.0
26/07:00pm 28.6 - - - - NE 6 9 3 5 1015.2 1015.1 0.0
26/06:30pm 30.1 - - - - NNE 11 19 6 10 1014.6 1014.5 0.0
26/06:00pm 32.0 - - - - NE 11 19 6 10 1014.0 1013.9 0.0
26/05:30pm 33.5 - - - - NE 11 17 6 9 1013.6 1013.5 0.0
26/05:00pm 34.2 - - - - NE 13 19 7 10 1013.4 1013.3 0.0
26/04:30pm 34.4 - - - - NE 13 20 7 11 1013.1 1013.0 0.0
26/04:00pm 34.3 - - - - NE 15 20 8 11 1013.0 1012.9 0.0
26/03:30pm 35.0 - - - - ENE 13 20 7 11 1013.0 1012.9 0.0
26/03:00pm 34.4 - - - - ENE 13 20 7 11 1013.0 1012.9 0.0

Other Formats:

Comma delimited format used in spreadsheet applications
http://www.bom.gov.au/fwo/IDD60801/IDD60801.94110.axf

JavaScript Object Notation format (JSON) in row-major order
http://www.bom.gov.au/fwo/IDD60801/IDD60801.94110.json